Time;durP1;ratioP1;P1;durP2;ratioP2;P2;SDS_P1;SDS_P2;PMS_P1;PMS_P2;Temp;Humidity;BMP_temperature;BMP_pressure;BME280_temperature;BME280_humidity;BME280_pressure;Samples;Min_cycle;Max_cycle;Signal;HPM_P1;HPM_P2
2022/12/11 00:00:47;;;;;;;70.60;28.93;;;;;;;7.32;100.00;98984.41;124324;1099;104277;-81
2022/12/11 00:03:38;;;;;;;81.97;26.93;;;;;;;7.33;100.00;98976.62;124008;1099;104363;-80
2022/12/11 00:06:12;;;;;;;78.47;26.93;;;;;;;7.34;100.00;98981.00;124019;1099;104657;-80
2022/12/11 00:08:44;;;;;;;65.10;26.90;;;;;;;7.35;100.00;98981.88;124074;1099;104274;-81
2022/12/11 00:11:16;;;;;;;72.90;26.90;;;;;;;7.35;100.00;98982.78;123882;1098;104214;-80
2022/12/11 00:13:47;;;;;;;62.17;29.40;;;;;;;7.36;100.00;98975.82;123846;1099;104360;-80
2022/12/11 00:16:18;;;;;;;74.80;28.40;;;;;;;7.38;100.00;98977.60;123804;1099;104226;-80
2022/12/11 00:18:49;;;;;;;69.83;27.20;;;;;;;7.40;100.00;98971.55;123843;1099;104271;-80
2022/12/11 00:21:21;;;;;;;63.93;28.03;;;;;;;7.41;100.00;98979.41;123814;1099;104345;-80
2022/12/11 00:23:52;;;;;;;56.93;28.83;;;;;;;7.41;100.00;98963.75;123779;1099;104255;-80
2022/12/11 00:26:24;;;;;;;61.10;27.60;;;;;;;7.44;100.00;98968.17;123780;1099;104290;-80
2022/12/11 00:28:57;;;;;;;54.23;27.77;;;;;;;7.42;100.00;98962.92;124026;1099;104278;-80
2022/12/11 00:31:28;;;;;;;67.43;27.63;;;;;;;7.43;100.00;98967.27;124222;1099;105476;-81
2022/12/11 00:34:01;;;;;;;70.40;28.20;;;;;;;7.44;100.00;98957.73;123928;1099;104285;-81
2022/12/11 00:36:32;;;;;;;73.70;29.20;;;;;;;7.43;100.00;98946.39;124088;1099;104265;-80
2022/12/11 00:39:05;;;;;;;69.53;27.70;;;;;;;7.41;100.00;98942.01;124038;1099;104616;-80
2022/12/11 00:41:36;;;;;;;63.68;29.52;;;;;;;7.41;100.00;98936.78;124064;1099;104271;-81
2022/12/11 00:44:07;;;;;;;85.10;30.90;;;;;;;7.39;100.00;98931.53;123971;1099;104280;-80
2022/12/11 00:46:38;;;;;;;62.63;30.30;;;;;;;7.40;100.00;98929.79;124220;1099;104306;-80
2022/12/11 00:49:10;;;;;;;62.67;30.80;;;;;;;7.38;100.00;98919.31;124290;1099;104238;-80
2022/12/11 00:51:41;;;;;;;63.47;31.23;;;;;;;7.38;100.00;98919.31;124051;1099;104393;-80
2022/12/11 00:54:12;;;;;;;61.33;29.90;;;;;;;7.36;100.00;98913.19;123768;1099;104369;-80
2022/12/11 00:56:43;;;;;;;69.90;31.23;;;;;;;7.36;100.00;98919.28;124300;1099;104166;-81
2022/12/11 00:59:14;;;;;;;65.37;31.77;;;;;;;7.34;100.00;98915.77;124195;1099;104294;-80
2022/12/11 01:01:46;;;;;;;80.90;30.83;;;;;;;7.34;100.00;98914.90;124215;1099;104224;-79
2022/12/11 01:04:17;;;;;;;67.03;29.13;;;;;;;7.34;100.00;98910.55;124255;1099;104844;-80
2022/12/11 01:06:48;;;;;;;70.33;30.57;;;;;;;7.35;100.00;98906.20;124213;1099;104335;-80
2022/12/11 01:12:20;;;;;;;69.00;28.30;;;;;;;7.36;100.00;98895.80;123754;1102;104581;-80
2022/12/11 01:14:51;;;;;;;63.07;27.73;;;;;;;7.37;100.00;98896.70;123722;1099;104352;-81
2022/12/11 01:17:22;;;;;;;67.20;26.90;;;;;;;7.38;100.00;98880.17;123688;1099;104711;-80
2022/12/11 01:19:55;;;;;;;51.10;26.17;;;;;;;7.38;100.00;98874.95;123742;1099;104424;-81
2022/12/11 01:22:26;;;;;;;60.13;26.23;;;;;;;7.40;100.00;98874.98;123738;1099;104248;-80
2022/12/11 01:24:58;;;;;;;76.20;26.60;;;;;;;7.40;100.00;98878.47;123795;1099;104721;-81
2022/12/11 01:27:29;;;;;;;60.03;26.73;;;;;;;7.40;100.00;98860.20;123922;1099;104278;-81
2022/12/11 01:30:00;;;;;;;64.40;24.97;;;;;;;7.40;100.00;98860.20;124018;1098;104290;-80
2022/12/11 01:32:33;;;;;;;63.17;26.40;;;;;;;7.40;100.00;98864.55;124135;1099;104361;-81
2022/12/11 01:35:07;;;;;;;59.97;24.67;;;;;;;7.41;100.00;98861.11;124080;1099;104265;-81
2022/12/11 01:37:39;;;;;;;76.87;27.63;;;;;;;7.40;100.00;98857.59;123826;1099;104759;-81
2022/12/11 01:40:13;;;;;;;63.03;26.73;;;;;;;7.41;100.00;98848.93;123685;1099;104248;-81
2022/12/11 01:42:45;;;;;;;56.17;26.33;;;;;;;7.40;100.00;98839.33;124185;1099;104408;-80
2022/12/11 01:45:35;;;;;;;82.60;27.87;;;;;;;7.38;100.00;98833.20;124179;1099;104376;-80
2022/12/11 01:48:09;;;;;;;81.03;27.43;;;;;;;7.35;100.00;98831.44;123920;1099;104252;-80
2022/12/11 01:50:45;;;;;;;82.57;28.93;;;;;;;7.35;100.00;98826.21;124114;1099;104201;-81
2022/12/11 01:53:21;;;;;;;99.20;29.70;;;;;;;7.36;100.00;98824.47;124128;1099;104249;-80
2022/12/11 01:55:55;;;;;;;75.00;28.15;;;;;;;7.37;100.00;98813.20;124089;1099;104217;-80
2022/12/11 01:58:31;;;;;;;94.03;29.53;;;;;;;7.38;100.00;98818.42;123961;1099;104191;-81
2022/12/11 02:01:02;;;;;;;73.50;29.33;;;;;;;7.38;100.00;98807.98;124030;1099;104271;-80
2022/12/11 02:03:34;;;;;;;70.50;30.50;;;;;;;7.39;100.00;98811.49;124012;1099;104281;-80
2022/12/11 02:06:05;;;;;;;73.70;29.17;;;;;;;7.40;100.00;98802.80;123843;1099;104262;-81
2022/12/11 02:08:36;;;;;;;82.20;31.53;;;;;;;7.41;100.00;98783.69;123886;1099;104357;-80
2022/12/11 02:11:19;;;;;;;81.87;30.10;;;;;;;7.40;100.00;98789.75;123971;1099;104346;-80
2022/12/11 02:13:57;;;;;;;67.43;31.73;;;;;;;7.40;100.00;98783.66;123968;1098;104345;-80
2022/12/11 02:16:33;;;;;;;82.33;32.67;;;;;;;7.40;100.00;98775.83;123944;1099;104270;-80
2022/12/11 02:19:18;;;;;;;67.97;32.63;;;;;;;7.40;100.00;98774.09;124105;1099;104274;-81
2022/12/11 02:21:50;;;;;;;;;;;;;;;7.39;100.00;98772.34;124091;1099;104191;-80
2022/12/11 02:24:43;;;;;;;65.33;32.30;;;;;;;7.38;100.00;98774.05;123937;1099;104353;-80
2022/12/11 02:27:30;;;;;;;60.57;31.87;;;;;;;7.38;100.00;98773.19;123821;1098;104194;-79
2022/12/11 02:30:05;;;;;;;75.57;32.53;;;;;;;7.37;100.00;98781.88;123870;1098;104326;-79
2022/12/11 02:32:43;;;;;;;65.77;29.90;;;;;;;7.36;100.00;98791.42;123834;1099;104281;-80
2022/12/11 02:35:19;;;;;;;59.13;28.17;;;;;;;7.36;100.00;98787.94;124059;1099;104357;-80
2022/12/11 02:37:56;;;;;;;60.35;25.80;;;;;;;7.36;100.00;98787.94;123725;1099;104268;-79
2022/12/11 02:40:30;;;;;;;66.73;23.70;;;;;;;7.36;100.00;98799.25;123892;1098;104389;-80
2022/12/11 02:43:06;;;;;;;60.73;22.70;;;;;;;7.37;100.00;98806.23;123849;1099;104348;-80
2022/12/11 02:45:40;;;;;;;60.53;21.03;;;;;;;7.39;100.00;98795.83;123962;1099;104280;-80
2022/12/11 02:48:15;;;;;;;72.53;20.47;;;;;;;7.40;100.00;98797.58;123861;1099;104360;-80
2022/12/11 02:50:46;;;;;;;;;;;;;;;7.41;100.00;98788.04;123884;1099;104251;-80
2022/12/11 02:53:22;;;;;;;63.60;18.73;;;;;;;7.42;100.00;98792.39;123785;1099;104379;-80
2022/12/11 02:55:58;;;;;;;66.20;18.87;;;;;;;7.43;100.00;98789.81;123912;1099;104302;-81
2022/12/11 02:58:33;;;;;;;41.17;16.60;;;;;;;7.45;100.00;98776.80;123816;1099;104252;-80
2022/12/11 03:01:04;;;;;;;72.47;17.47;;;;;;;7.45;100.00;98769.87;123969;1099;104366;-79
2022/12/11 03:03:35;;;;;;;56.37;17.70;;;;;;;7.47;100.00;98762.94;123869;1099;104441;-80
2022/12/11 03:06:09;;;;;;;64.47;17.57;;;;;;;7.48;100.00;98764.71;123886;1099;104179;-81
2022/12/11 03:08:40;;;;;;;67.50;17.60;;;;;;;7.51;100.00;98762.16;124006;1099;104248;-80
2022/12/11 03:11:13;;;;;;;47.43;18.30;;;;;;;7.54;100.00;98766.55;124032;1099;104649;-80
2022/12/11 03:13:44;;;;;;;69.47;17.35;;;;;;;7.55;100.00;98760.48;123826;1099;104616;-81
2022/12/11 03:16:27;;;;;;;56.50;17.60;;;;;;;7.58;100.00;98755.33;123847;1099;104827;-80
2022/12/11 03:19:07;;;;;;;57.07;18.30;;;;;;;7.59;100.00;98757.09;123755;1099;104242;-80
2022/12/11 03:21:44;;;;;;;66.47;18.43;;;;;;;7.63;100.00;98737.14;123854;1099;104214;-80
2022/12/11 03:24:20;;;;;;;54.03;18.17;;;;;;;7.64;100.00;98731.95;124005;1098;104405;-80
2022/12/11 03:26:59;;;;;;;66.70;17.97;;;;;;;7.66;100.00;98725.02;124013;1099;104289;-80
2022/12/11 03:29:35;;;;;;;69.83;17.83;;;;;;;7.69;100.00;98726.81;123822;1099;104494;-80
2022/12/11 03:32:12;;;;;;;62.83;19.30;;;;;;;7.71;100.00;98736.45;123756;1099;104364;-80
2022/12/11 03:34:51;;;;;;;65.47;18.43;;;;;;;7.72;100.00;98730.36;123975;1098;104300;-80
2022/12/11 03:37:25;;;;;;;57.47;18.17;;;;;;;7.74;100.00;98728.67;123934;1099;104354;-80
2022/12/11 03:40:02;;;;;;;42.50;19.30;;;;;;;7.77;100.00;98724.34;124116;1099;104252;-79
2022/12/11 03:42:34;;;;;;;69.37;17.33;;;;;;;7.78;100.00;98716.55;123961;1099;104357;-80
2022/12/11 03:45:07;;;;;;;58.43;17.17;;;;;;;7.80;100.00;98698.30;123791;1099;104248;-79
2022/12/11 03:47:41;;;;;;;64.03;18.45;;;;;;;7.81;100.00;98700.06;123981;1099;104178;-79
2022/12/11 03:50:15;;;;;;;60.87;18.37;;;;;;;7.82;100.00;98694.88;124084;1099;104163;-80
2022/12/11 03:52:47;;;;;;;;;;;;;;;7.84;100.00;98689.67;124129;1099;104248;-79
2022/12/11 03:55:21;;;;;;;55.67;16.83;;;;;;;7.85;100.00;98684.48;123860;1099;104319;-80
2022/12/11 03:57:51;;;;;;;;;;;;;;;7.86;100.00;98662.72;124043;1099;104230;-79
2022/12/11 04:00:23;;;;;;;56.50;18.30;;;;;;;7.87;100.00;98664.48;124005;1099;104227;-79
2022/12/11 04:03:12;;;;;;;61.17;18.03;;;;;;;7.88;100.00;98670.58;124079;1099;104255;-79
2022/12/11 04:05:45;;;;;;;53.90;17.63;;;;;;;7.90;100.00;98667.15;123997;1098;104629;-80
2022/12/11 04:08:17;;;;;;;55.57;17.90;;;;;;;7.93;100.00;98658.47;123974;1099;104277;-79
2022/12/11 04:11:33;;;;;;;59.07;18.33;;;;;;;7.95;100.00;98645.43;123905;1099;104350;-80
2022/12/11 04:13:40;;;;;;;61.43;18.37;;;;;;;7.98;100.00;98637.64;123993;1099;104306;-80
2022/12/11 04:16:11;;;;;;;87.43;17.67;;;;;;;7.99;100.00;98628.97;124113;1099;104364;-82
2022/12/11 04:24:33;;;;;;;63.90;17.55;;;;;;;8.06;100.00;98617.77;123731;1102;105029;-80
2022/12/11 04:27:04;;;;;;;77.00;17.57;;;;;;;8.07;100.00;98614.28;123704;1099;110862;-79
2022/12/11 04:29:35;;;;;;;57.70;17.10;;;;;;;8.09;100.00;98618.69;123996;1099;104258;-79
2022/12/11 04:32:06;;;;;;;63.23;17.03;;;;;;;8.12;100.00;98606.52;124019;1098;104403;-79
2022/12/11 04:34:39;;;;;;;77.43;17.57;;;;;;;8.13;100.00;98606.55;123826;1098;104201;-80
2022/12/11 04:37:10;;;;;;;80.33;19.00;;;;;;;8.16;100.00;98597.89;123913;1099;104245;-79
2022/12/11 04:39:41;;;;;;;73.73;17.03;;;;;;;8.19;100.00;98597.93;123979;1098;104351;-79
2022/12/11 04:42:12;;;;;;;66.17;17.70;;;;;;;8.21;100.00;98588.38;123983;1099;104299;-81
2022/12/11 04:44:44;;;;;;;66.70;16.17;;;;;;;8.23;100.00;98582.32;123959;1099;104398;-80
2022/12/11 04:47:15;;;;;;;61.23;16.93;;;;;;;8.27;100.00;98578.01;124004;1099;104313;-81
2022/12/11 04:49:46;;;;;;;40.30;15.37;;;;;;;8.31;100.00;98574.59;124088;1099;104264;-80
2022/12/11 04:52:18;;;;;;;41.93;17.10;;;;;;;8.34;100.00;98573.77;123791;1099;104291;-80
2022/12/11 04:54:50;;;;;;;50.90;15.35;;;;;;;8.37;100.00;98573.81;123994;1099;104280;-80
2022/12/11 04:57:21;;;;;;;46.07;16.67;;;;;;;8.40;100.00;98571.23;123935;1099;104252;-80
2022/12/11 04:59:52;;;;;;;66.00;17.17;;;;;;;8.43;100.00;98573.86;124052;1099;104277;-79
2022/12/11 05:02:23;;;;;;;39.87;16.33;;;;;;;8.45;100.00;98567.84;124025;1099;104280;-79
2022/12/11 05:04:54;;;;;;;51.40;16.17;;;;;;;8.47;100.00;98567.00;123859;1099;104251;-80
2022/12/11 05:07:26;;;;;;;43.33;15.50;;;;;;;8.50;100.00;98556.58;123881;1099;104235;-79
2022/12/11 05:09:57;;;;;;;63.57;16.50;;;;;;;8.53;100.00;98561.84;123818;1099;104397;-80
2022/12/11 05:12:28;;;;;;;54.17;16.97;;;;;;;8.55;100.00;98541.82;123826;1099;104316;-80
2022/12/11 05:14:59;;;;;;;46.85;16.95;;;;;;;8.57;100.00;98540.99;123843;1099;104355;-79
2022/12/11 05:17:30;;;;;;;57.13;16.93;;;;;;;8.59;100.00;98544.49;124061;1099;104245;-79
2022/12/11 05:20:02;;;;;;;61.27;16.83;;;;;;;8.61;100.00;98542.77;124040;1099;104380;-79
2022/12/11 05:22:33;;;;;;;58.77;16.53;;;;;;;8.63;100.00;98543.68;123994;1099;104322;-79
2022/12/11 05:25:05;;;;;;;66.23;17.40;;;;;;;8.66;100.00;98545.44;123992;1099;104507;-79
2022/12/11 05:27:36;;;;;;;65.63;16.67;;;;;;;8.69;100.00;98549.83;123955;1099;104245;-80
2022/12/11 05:30:10;;;;;;;64.33;18.07;;;;;;;8.70;100.00;98548.98;124048;1099;104249;-80
2022/12/11 05:32:41;;;;;;;69.87;18.57;;;;;;;8.72;100.00;98545.51;124095;1099;104296;-80
2022/12/11 05:35:13;;;;;;;60.83;17.57;;;;;;;8.74;100.00;98537.69;123691;1099;104383;-80
2022/12/11 05:37:44;;;;;;;52.13;18.00;;;;;;;8.78;100.00;98529.89;123867;1099;104351;-80
2022/12/11 05:40:15;;;;;;;65.23;18.30;;;;;;;8.80;100.00;98542.98;123999;1099;104332;-80
2022/12/11 05:42:46;;;;;;;50.73;17.60;;;;;;;8.83;100.00;98535.17;124040;1099;104351;-80
2022/12/11 05:45:18;;;;;;;59.97;19.03;;;;;;;8.86;100.00;98535.20;123959;1099;104229;-80
2022/12/11 05:47:49;;;;;;;66.07;19.47;;;;;;;8.88;100.00;98536.13;123919;1099;104377;-80
2022/12/11 05:50:20;;;;;;;54.30;19.13;;;;;;;8.91;100.00;98520.47;123995;1099;104696;-80
2022/12/11 05:52:51;;;;;;;54.60;20.00;;;;;;;8.95;100.00;98510.90;123936;1099;104328;-80
2022/12/11 05:55:22;;;;;;;44.25;20.35;;;;;;;8.97;100.00;98512.65;123944;1099;104239;-80
2022/12/11 05:57:53;;;;;;;55.50;21.13;;;;;;;9.00;100.00;98510.06;124001;1099;104271;-81
2022/12/11 06:00:24;;;;;;;38.73;21.70;;;;;;;9.04;100.00;98517.94;124003;1099;104293;-81
2022/12/11 06:02:55;;;;;;;52.45;22.70;;;;;;;9.08;100.00;98512.76;124007;1099;104361;-80
2022/12/11 06:05:26;;;;;;;48.60;22.10;;;;;;;9.11;100.00;98507.55;123760;1099;104190;-80
2022/12/11 06:07:57;;;;;;;50.37;22.83;;;;;;;9.13;100.00;98511.09;123737;1099;104692;-80
2022/12/11 06:10:29;;;;;;;45.50;23.23;;;;;;;9.17;100.00;98511.98;123814;1099;104267;-80
2022/12/11 06:13:00;;;;;;;44.20;23.20;;;;;;;9.21;100.00;98513.77;123769;1099;104319;-80
2022/12/11 06:15:32;;;;;;;44.97;23.50;;;;;;;9.23;100.00;98509.42;123693;1099;104367;-80
2022/12/11 06:18:03;;;;;;;48.93;24.03;;;;;;;9.27;100.00;98516.45;123896;1099;104246;-79
2022/12/11 06:20:35;;;;;;;46.45;24.00;;;;;;;9.33;100.00;98512.99;124078;1099;104251;-79
2022/12/11 06:23:06;;;;;;;46.87;25.53;;;;;;;9.39;100.00;98502.58;123975;1099;104290;-79
2022/12/11 06:25:40;;;;;;;54.50;24.93;;;;;;;9.45;100.00;98492.16;124209;1099;104353;-79
2022/12/11 06:28:11;;;;;;;52.50;25.40;;;;;;;9.52;100.00;98493.97;123955;1099;102298;-79
2022/12/11 06:30:42;;;;;;;47.73;24.57;;;;;;;9.59;100.00;98488.78;124212;1099;104323;-79
2022/12/11 06:33:13;;;;;;;47.60;24.20;;;;;;;9.63;100.00;98491.43;124396;1099;104680;-79
2022/12/11 06:35:44;;;;;;;54.60;25.10;;;;;;;9.71;100.00;98494.11;124286;1099;104264;-79
2022/12/11 06:38:16;;;;;;;45.10;25.50;;;;;;;9.78;100.00;98492.40;124158;1099;104194;-78
2022/12/11 06:40:54;;;;;;;51.73;25.20;;;;;;;9.84;100.00;98487.20;124248;1099;104274;-80
2022/12/11 06:43:25;;;;;;;47.63;24.60;;;;;;;9.90;100.00;98484.62;124273;1099;104194;-79
2022/12/11 06:45:58;;;;;;;51.40;24.93;;;;;;;9.96;100.00;98482.04;124176;1099;104344;-79
2022/12/11 06:48:30;;;;;;;44.77;24.13;;;;;;;10.00;100.00;98483.82;124123;1099;104185;-79
2022/12/11 06:51:04;;;;;;;45.17;24.40;;;;;;;10.05;100.00;98468.98;123753;1099;104412;-79
2022/12/11 06:53:35;;;;;;;42.83;23.73;;;;;;;10.11;100.00;98475.98;124218;1099;104384;-79
2022/12/11 06:56:08;;;;;;;49.23;24.50;;;;;;;10.16;100.00;98479.53;123799;1099;104267;-79
2022/12/11 06:58:40;;;;;;;55.25;25.85;;;;;;;10.20;100.00;98478.66;123804;1099;104252;-79
2022/12/11 07:01:19;;;;;;;52.27;26.60;;;;;;;10.24;100.00;98471.70;124045;1099;104271;-79
2022/12/11 07:03:52;;;;;;;57.47;27.43;;;;;;;10.27;100.00;98474.34;124079;1099;104344;-79
2022/12/11 07:06:24;;;;;;;55.08;27.98;;;;;;;10.31;100.00;98464.73;123960;1099;104245;-80
2022/12/11 07:08:55;;;;;;;50.77;26.43;;;;;;;10.36;100.00;98449.92;124189;1099;104219;-79
2022/12/11 07:11:27;;;;;;;51.23;28.67;;;;;;;10.40;100.00;98452.56;123960;1099;104376;-79
2022/12/11 07:14:00;;;;;;;50.83;24.83;;;;;;;10.48;100.00;98438.61;123996;1099;104290;-79
2022/12/11 07:16:31;;;;;;;59.97;28.13;;;;;;;10.53;100.00;98437.77;124123;1099;104376;-79
2022/12/11 07:19:02;;;;;;;49.13;27.77;;;;;;;10.58;100.00;98433.39;124208;1099;104489;-79
2022/12/11 07:21:33;;;;;;;53.80;28.90;;;;;;;10.63;100.00;98446.52;124114;1098;104268;-79
2022/12/11 07:24:05;;;;;;;59.77;29.53;;;;;;;10.67;100.00;98445.64;124094;1099;104287;-79
2022/12/11 07:26:37;;;;;;;54.23;28.83;;;;;;;10.72;100.00;98433.43;124221;1099;104322;-79
2022/12/11 07:29:08;;;;;;;53.60;29.10;;;;;;;10.78;100.00;98440.41;124032;1099;104475;-80
2022/12/11 07:31:39;;;;;;;54.67;28.80;;;;;;;10.82;100.00;98433.45;124150;1099;104226;-80
2022/12/11 07:34:14;;;;;;;57.00;28.37;;;;;;;10.87;100.00;98431.70;124379;1099;104242;-80
2022/12/11 07:36:45;;;;;;;54.23;29.17;;;;;;;10.90;100.00;98431.70;124389;1099;104300;-80
2022/12/11 07:39:16;;;;;;;59.27;29.70;;;;;;;10.94;100.00;98425.59;124573;1099;104211;-80
2022/12/11 07:41:47;;;;;;;56.60;28.93;;;;;;;11.00;100.00;98425.60;124057;1099;104235;-82
2022/12/11 07:44:21;;;;;;;54.90;28.32;;;;;;;11.05;100.00;98428.23;124141;1099;104303;-79
2022/12/11 07:46:52;;;;;;;51.63;27.97;;;;;;;11.08;100.00;98418.59;124515;1099;104364;-80
2022/12/11 07:49:23;;;;;;;50.83;28.37;;;;;;;11.12;100.00;98409.83;124140;1099;104274;-80
2022/12/11 07:51:54;;;;;;;47.63;26.83;;;;;;;11.17;100.00;98414.22;124240;1099;104268;-80
2022/12/11 07:54:25;;;;;;;51.33;26.37;;;;;;;11.19;100.00;98409.83;124220;1099;104384;-81
2022/12/11 07:56:56;;;;;;;50.50;26.65;;;;;;;11.22;100.00;98404.58;123994;1098;104274;-79
2022/12/11 07:59:27;;;;;;;49.73;26.70;;;;;;;11.26;100.00;98407.20;124368;1099;104168;-80
2022/12/11 08:01:59;;;;;;;47.80;26.67;;;;;;;11.29;100.00;98406.34;124196;1099;104280;-80
2022/12/11 08:04:30;;;;;;;55.50;27.27;;;;;;;11.33;100.00;98408.09;124092;1099;104271;-80
2022/12/11 08:07:01;;;;;;;43.07;22.93;;;;;;;11.37;100.00;98404.57;124301;1099;104191;-79
2022/12/11 08:09:32;;;;;;;48.65;25.55;;;;;;;11.43;100.00;98401.07;124047;1099;104191;-81
2022/12/11 08:12:03;;;;;;;50.43;24.67;;;;;;;11.47;100.00;98401.06;124290;1099;104347;-80
2022/12/11 08:14:35;;;;;;;49.53;24.00;;;;;;;11.50;100.00;98397.57;124223;1099;104396;-80
2022/12/11 08:17:06;;;;;;;40.37;23.73;;;;;;;11.53;100.00;98399.30;124247;1099;104746;-80
2022/12/11 08:19:37;;;;;;;47.57;23.60;;;;;;;11.56;100.00;98401.92;124341;1099;104226;-80
2022/12/11 08:22:08;;;;;;;45.67;23.27;;;;;;;11.59;100.00;98401.91;123964;1099;104357;-79
2022/12/11 08:24:39;;;;;;;44.40;22.37;;;;;;;11.60;100.00;98390.54;124468;1099;104344;-80
2022/12/11 08:27:10;;;;;;;42.50;21.83;;;;;;;11.63;100.00;98394.02;124143;1098;104644;-79
2022/12/11 08:29:42;;;;;;;46.97;23.10;;;;;;;11.65;100.00;98391.39;124565;1099;104351;-80
2022/12/11 08:32:15;;;;;;;44.03;21.93;;;;;;;11.67;100.00;98387.00;124719;1099;104366;-80
2022/12/11 08:34:46;;;;;;;44.65;23.07;;;;;;;11.70;100.00;98373.86;124386;1099;104222;-80
2022/12/11 08:37:18;;;;;;;44.40;21.27;;;;;;;11.72;100.00;98364.23;124427;1099;104340;-80
2022/12/11 08:39:49;;;;;;;37.93;20.57;;;;;;;11.74;100.00;98375.61;124333;1099;104290;-80
2022/12/11 08:42:20;;;;;;;40.67;21.50;;;;;;;11.77;100.00;98379.98;124012;1099;104300;-79
2022/12/11 08:44:51;;;;;;;43.53;22.50;;;;;;;11.77;100.00;98379.98;124368;1099;104274;-80
2022/12/11 08:47:24;;;;;;;41.77;20.20;;;;;;;11.79;100.00;98383.48;124359;1099;104159;-79
2022/12/11 08:49:56;;;;;;;39.43;20.97;;;;;;;11.79;100.00;98376.45;124167;1099;104322;-78
2022/12/11 08:52:30;;;;;;;46.63;20.77;;;;;;;11.79;100.00;98363.32;124355;1099;104233;-80
2022/12/11 08:55:01;;;;;;;41.65;21.15;;;;;;;11.80;100.00;98379.98;124562;1099;104162;-79
2022/12/11 08:57:32;;;;;;;43.07;20.83;;;;;;;11.80;100.00;98372.09;124423;1099;104833;-78
2022/12/11 09:00:03;;;;;;;42.33;20.97;;;;;;;11.81;100.00;98365.94;124545;1098;104405;-79
2022/12/11 09:02:35;;;;;;;38.57;20.23;;;;;;;11.80;100.00;98367.70;124346;1097;104274;-79
2022/12/11 09:05:08;;;;;;;37.13;20.10;;;;;;;11.82;100.00;98354.56;124422;1098;104357;-79
2022/12/11 09:07:39;;;;;;;37.23;20.37;;;;;;;11.83;100.00;98359.81;124312;1099;104294;-79
2022/12/11 09:10:11;;;;;;;44.03;20.17;;;;;;;11.85;100.00;98342.27;124413;1098;104300;-79
2022/12/11 09:12:42;;;;;;;40.17;20.10;;;;;;;11.86;100.00;98338.78;124172;1099;104372;-79
2022/12/11 09:15:14;;;;;;;45.80;20.10;;;;;;;11.88;100.00;98336.14;124080;1099;104403;-79
2022/12/11 09:17:45;;;;;;;39.90;20.57;;;;;;;11.90;100.00;98336.14;124493;1099;104294;-78
2022/12/11 09:20:16;;;;;;;35.03;17.70;;;;;;;11.91;100.00;98328.25;124585;1098;104211;-79
2022/12/11 09:22:47;;;;;;;41.57;19.33;;;;;;;11.93;100.00;98318.63;124024;1099;104374;-80
2022/12/11 09:25:19;;;;;;;39.67;19.40;;;;;;;11.98;100.00;98310.72;124413;1099;104296;-79
2022/12/11 09:27:50;;;;;;;41.67;19.63;;;;;;;12.02;100.00;98304.58;124043;1099;104326;-81
2022/12/11 09:30:21;;;;;;;36.20;19.83;;;;;;;12.07;100.00;98308.05;124180;1099;104245;-80
2022/12/11 09:32:53;;;;;;;36.23;19.20;;;;;;;12.11;100.00;98299.27;124510;1099;104169;-80
2022/12/11 09:35:24;;;;;;;35.40;17.33;;;;;;;12.16;100.00;98291.36;124444;1099;104357;-80
2022/12/11 09:37:55;;;;;;;36.27;18.53;;;;;;;12.19;100.00;98284.31;124207;1099;104336;-80
2022/12/11 09:40:27;;;;;;;37.57;17.37;;;;;;;12.22;100.00;98288.69;124349;1099;104242;-79
2022/12/11 09:43:05;;;;;;;39.40;17.30;;;;;;;12.25;100.00;98287.78;124444;1099;104357;-80
2022/12/11 09:45:36;;;;;;;34.90;17.10;;;;;;;12.24;100.00;98273.77;124081;1099;104169;-80
2022/12/11 09:48:09;;;;;;;36.67;17.13;;;;;;;12.26;100.00;98257.98;124051;1102;104281;-79
2022/12/11 09:50:41;;;;;;;36.83;17.92;;;;;;;12.28;100.00;98262.36;124429;1099;104677;-80
2022/12/11 09:53:17;;;;;;;36.27;17.40;;;;;;;12.30;100.00;98262.34;124238;1099;104297;-80
2022/12/11 09:56:00;;;;;;;36.45;17.40;;;;;;;12.33;100.00;98241.29;124134;1099;104161;-80
2022/12/11 09:58:39;;;;;;;41.10;17.80;;;;;;;12.40;100.00;98235.08;124303;1099;104236;-79
2022/12/11 10:01:19;;;;;;;39.23;17.80;;;;;;;12.46;100.00;98239.43;124006;1099;104456;-79
2022/12/11 10:04:12;;;;;;;39.33;17.67;;;;;;;12.50;100.00;98228.87;123964;1099;107810;-80
2022/12/11 10:06:50;;;;;;;36.57;16.67;;;;;;;12.53;100.00;98228.84;124006;1099;104267;-80
2022/12/11 10:09:31;;;;;;;36.03;16.97;;;;;;;12.57;100.00;98219.16;123881;1098;104278;-79
2022/12/11 10:12:16;;;;;;;40.70;17.00;;;;;;;12.60;100.00;98203.34;124234;1099;104252;-82
2022/12/11 10:14:59;;;;;;;38.07;17.20;;;;;;;12.64;100.00;98198.95;123920;1099;104355;-80
2022/12/11 10:17:34;;;;;;;35.80;16.70;;;;;;;12.69;100.00;98191.88;124073;1098;104304;-79
2022/12/11 10:20:19;;;;;;;36.50;16.90;;;;;;;12.76;100.00;98183.01;124125;1099;104682;-81
2022/12/11 10:22:52;;;;;;;38.70;16.87;;;;;;;12.83;100.00;98181.21;124104;1099;104316;-79
2022/12/11 10:25:28;;;;;;;34.73;15.97;;;;;;;12.88;100.00;98174.98;124230;1099;104267;-79
2022/12/11 10:28:00;;;;;;;35.33;15.53;;;;;;;12.94;100.00;98172.29;123979;1099;104318;-79
2022/12/11 10:30:37;;;;;;;35.03;16.13;;;;;;;13.01;100.00;98167.85;124084;1099;104342;-79
2022/12/11 10:33:18;;;;;;;35.63;15.73;;;;;;;13.08;100.00;98161.60;124206;1099;104236;-81
2022/12/11 10:35:51;;;;;;;37.67;16.20;;;;;;;13.15;100.00;98167.69;123987;1099;104163;-80
2022/12/11 10:38:30;;;;;;;36.53;15.50;;;;;;;13.21;100.00;98154.42;124021;1099;104647;-79
2022/12/11 10:41:05;;;;;;;35.30;15.70;;;;;;;13.26;100.00;98146.45;123988;1099;104644;-80
2022/12/11 10:43:38;;;;;;;37.87;15.17;;;;;;;13.34;100.00;98142.02;124031;1099;104453;-79
2022/12/11 10:46:18;;;;;;;33.33;15.90;;;;;;;13.40;100.00;98139.31;124247;1099;104404;-80
2022/12/11 10:48:52;;;;;;;32.35;14.85;;;;;;;13.45;100.00;98141.87;124143;1098;104271;-79
2022/12/11 10:51:33;;;;;;;32.73;14.47;;;;;;;13.46;100.00;98139.23;124297;1099;104213;-81
2022/12/11 10:54:16;;;;;;;33.67;14.60;;;;;;;13.51;100.00;98122.46;124096;1099;104313;-81
2022/12/11 10:56:50;;;;;;;34.10;13.93;;;;;;;13.54;100.00;98132.95;123976;1099;104168;-79
2022/12/11 10:59:30;;;;;;;33.35;14.60;;;;;;;13.55;100.00;98117.13;124208;1099;104213;-81
2022/12/11 11:02:02;;;;;;;30.95;14.60;;;;;;;13.58;100.00;98126.77;123900;1099;104350;-82
2022/12/11 11:04:38;;;;;;;32.80;14.67;;;;;;;13.60;100.00;98117.95;124105;1099;104246;-79
2022/12/11 11:07:18;;;;;;;34.53;15.17;;;;;;;13.62;100.00;98129.33;124050;1099;104325;-80
2022/12/11 11:09:50;;;;;;;34.20;14.63;;;;;;;13.66;100.00;98128.41;123905;1099;104280;-79
2022/12/11 11:12:25;;;;;;;33.23;13.97;;;;;;;13.68;100.00;98116.95;124115;1099;104248;-80
2022/12/11 11:15:05;;;;;;;36.03;14.80;;;;;;;13.70;100.00;98102.87;124101;1099;104255;-80
2022/12/11 11:17:46;;;;;;;33.23;14.97;;;;;;;13.70;100.00;98107.24;124097;1099;104626;-80
2022/12/11 11:20:21;;;;;;;36.03;15.03;;;;;;;13.71;100.00;98087.91;124203;1099;104469;-80
2022/12/11 11:22:54;;;;;;;35.73;14.67;;;;;;;13.73;100.00;98088.75;124059;1099;104347;-80
2022/12/11 11:25:28;;;;;;;37.10;14.10;;;;;;;13.74;100.00;98093.14;124152;1099;104315;-80
2022/12/11 11:28:01;;;;;;;38.55;14.95;;;;;;;13.78;100.00;98108.02;124246;1099;104342;-80
2022/12/11 11:30:34;;;;;;;34.20;14.63;;;;;;;13.84;100.00;98139.56;124314;1099;104208;-79
2022/12/11 11:33:13;;;;;;;29.37;13.93;;;;;;;13.89;100.00;98128.95;123910;1099;104277;-80
2022/12/11 11:35:54;;;;;;;39.70;14.73;;;;;;;13.94;100.00;98125.32;123849;1099;107898;-81